Time;durP1;ratioP1;P1;durP2;ratioP2;P2;SDS_P1;SDS_P2;PMS_P1;PMS_P2;Temp;Humidity;BMP_temperature;BMP_pressure;BME280_temperature;BME280_humidity;BME280_pressure;Samples;Min_cycle;Max_cycle;Signal;HPM_P1;HPM_P2
2022/06/26 00:00:28;;;;;;;5.87;4.77;;;22.30;99.90;;;;;;5116295;28;20424;-69
2022/06/26 00:02:55;;;;;;;5.33;4.07;;;22.30;99.90;;;;;;5115932;28;20448;-70
2022/06/26 00:05:22;;;;;;;4.93;4.43;;;22.30;99.90;;;;;;5115880;28;20497;-69
2022/06/26 00:07:48;;;;;;;5.03;4.57;;;22.30;99.90;;;;;;5115934;28;20450;-68
2022/06/26 00:10:17;;;;;;;5.00;4.50;;;22.20;99.90;;;;;;5115802;28;20811;-68
2022/06/26 00:12:43;;;;;;;4.70;4.30;;;22.20;99.90;;;;;;5115828;28;20463;-68
2022/06/26 00:15:14;;;;;;;5.77;4.77;;;22.10;99.90;;;;;;5115829;28;20561;-68
2022/06/26 00:17:40;;;;;;;6.27;4.57;;;22.10;99.90;;;;;;5115578;28;20439;-68
2022/06/26 00:20:11;;;;;;;5.63;4.87;;;22.10;99.90;;;;;;5115690;28;20412;-68
2022/06/26 00:22:37;;;;;;;5.30;4.63;;;22.10;99.90;;;;;;5115460;28;20983;-68
2022/06/26 00:25:04;;;;;;;4.70;4.30;;;22.10;99.90;;;;;;5115185;28;20416;-68
2022/06/26 00:27:48;;;;;;;4.93;4.53;;;22.10;99.90;;;;;;5115426;28;20448;-68
2022/06/26 00:30:17;;;;;;;4.90;4.23;;;22.10;99.90;;;;;;5115314;28;20874;-68
2022/06/26 00:32:43;;;;;;;6.00;5.30;;;22.10;99.90;;;;;;5115547;28;20531;-68
2022/06/26 00:35:15;;;;;;;5.10;4.00;;;22.00;99.90;;;;;;5115767;28;20431;-68
2022/06/26 00:37:42;;;;;;;5.30;4.77;;;22.00;99.90;;;;;;5115276;28;20458;-70
2022/06/26 00:40:12;;;;;;;6.73;4.80;;;22.00;99.90;;;;;;5115466;28;20412;-69
2022/06/26 00:42:44;;;;;;;4.40;4.00;;;22.00;99.90;;;;;;5115150;28;20456;-68
2022/06/26 00:45:12;;;;;;;5.43;4.87;;;21.90;99.90;;;;;;5115256;28;20404;-69
2022/06/26 00:47:39;;;;;;;8.57;4.73;;;21.90;99.90;;;;;;5115179;28;20474;-68
2022/06/26 00:50:09;;;;;;;8.23;4.03;;;21.90;99.90;;;;;;5114977;28;20478;-68
2022/06/26 00:52:37;;;;;;;6.83;4.50;;;21.90;99.90;;;;;;5114263;28;20478;-68
2022/06/26 00:55:04;;;;;;;7.90;4.93;;;21.80;99.90;;;;;;5115066;28;20443;-68
2022/06/26 00:57:30;;;;;;;4.90;4.43;;;21.80;99.90;;;;;;5114560;28;20460;-68
2022/06/26 00:59:57;;;;;;;6.80;4.30;;;21.80;99.90;;;;;;5115147;28;20450;-68
2022/06/26 01:02:24;;;;;;;7.27;4.60;;;21.90;99.90;;;;;;5114900;28;20443;-68
2022/06/26 01:04:58;;;;;;;5.17;4.43;;;21.80;99.90;;;;;;5114607;28;20969;-68
2022/06/26 01:07:31;;;;;;;5.23;4.73;;;21.80;99.90;;;;;;5114909;28;20894;-68
2022/06/26 01:09:58;;;;;;;6.50;5.90;;;21.80;99.90;;;;;;5114612;28;20964;-68
2022/06/26 01:12:24;;;;;;;8.67;5.20;;;21.80;99.90;;;;;;5114716;28;20460;-68
2022/06/26 01:14:54;;;;;;;4.77;4.37;;;21.70;99.90;;;;;;5114627;28;20435;-68
2022/06/26 01:17:21;;;;;;;5.10;4.50;;;21.60;99.90;;;;;;5114590;28;20438;-68
2022/06/26 01:19:52;;;;;;;4.57;4.17;;;21.60;99.90;;;;;;5114526;28;20798;-68
2022/06/26 01:22:20;;;;;;;5.23;4.10;;;21.60;99.90;;;;;;5114718;28;20496;-68
2022/06/26 01:24:54;;;;;;;5.00;4.30;;;21.50;99.90;;;;;;5114671;28;20469;-69
2022/06/26 01:27:20;;;;;;;4.67;4.17;;;21.50;99.90;;;;;;5114394;28;20452;-68
2022/06/26 01:29:51;;;;;;;5.03;4.57;;;21.50;99.90;;;;;;5114316;28;20463;-68
2022/06/26 01:32:18;;;;;;;5.30;4.43;;;21.40;99.90;;;;;;5114628;28;20451;-70
2022/06/26 01:34:44;;;;;;;6.10;5.13;;;21.40;99.90;;;;;;5114282;28;20451;-69
2022/06/26 01:37:10;;;;;;;5.07;4.57;;;21.40;99.90;;;;;;5114165;28;20454;-68
2022/06/26 01:39:41;;;;;;;4.30;3.90;;;21.40;99.90;;;;;;5114104;28;20787;-68
2022/06/26 01:42:13;;;;;;;4.33;3.87;;;21.40;99.90;;;;;;5114125;28;20443;-68
2022/06/26 01:44:39;;;;;;;6.83;4.13;;;21.30;99.90;;;;;;5114073;28;20882;-68
2022/06/26 01:47:15;;;;;;;4.27;3.90;;;21.30;99.90;;;;;;5113910;28;20452;-68
2022/06/26 01:49:46;;;;;;;5.10;4.60;;;21.30;99.90;;;;;;5113901;28;20463;-68
2022/06/26 01:52:12;;;;;;;6.73;4.53;;;21.30;99.90;;;;;;5113455;28;20991;-68
2022/06/26 01:54:38;;;;;;;3.90;3.60;;;21.20;99.90;;;;;;5114855;28;20770;-68
2022/06/26 01:57:04;;;;;;;5.07;4.67;;;21.20;99.90;;;;;;5113197;28;20463;-68
2022/06/26 01:59:30;;;;;;;4.63;3.70;;;21.20;99.90;;;;;;5113723;28;20537;-68
2022/06/26 02:01:56;;;;;;;4.73;4.13;;;21.20;99.90;;;;;;5113847;28;20525;-68
2022/06/26 02:04:22;;;;;;;4.60;4.13;;;21.20;99.90;;;;;;5113608;28;20422;-68
2022/06/26 02:06:49;;;;;;;5.13;4.63;;;21.20;99.90;;;;;;5113510;28;20963;-68
2022/06/26 02:15:07;;;;;;;3.97;3.57;;;21.10;99.90;;;;;;5113396;28;20483;-68
2022/06/26 02:17:37;;;;;;;5.13;4.63;;;21.10;99.90;;;;;;5111410;28;20535;-68
2022/06/26 02:20:04;;;;;;;5.33;4.63;;;21.00;99.90;;;;;;5110903;28;20412;-68
2022/06/26 02:22:44;;;;;;;5.87;4.60;;;21.00;99.90;;;;;;5111352;28;20451;-69
2022/06/26 02:25:12;;;;;;;6.17;4.90;;;21.00;99.90;;;;;;5111356;28;20407;-69
2022/06/26 02:27:38;;;;;;;5.30;4.43;;;21.00;99.90;;;;;;5111315;28;20451;-69
2022/06/26 02:30:07;;;;;;;4.63;4.23;;;20.90;99.90;;;;;;5112800;28;20478;-69
2022/06/26 02:32:36;;;;;;;4.70;4.23;;;20.90;99.90;;;;;;5113127;28;20455;-70
2022/06/26 02:35:02;;;;;;;4.50;4.10;;;20.90;99.90;;;;;;5113284;28;20788;-68
2022/06/26 02:37:29;;;;;;;5.00;4.20;;;20.90;99.90;;;;;;5113256;28;20852;-68
2022/06/26 02:39:56;;;;;;;7.13;4.37;;;20.90;99.90;;;;;;5113153;28;20415;-68
2022/06/26 02:42:23;;;;;;;5.60;5.10;;;20.90;99.90;;;;;;5113177;28;20508;-68
2022/06/26 02:44:52;;;;;;;5.83;4.73;;;20.80;99.90;;;;;;5113078;28;20505;-68
2022/06/26 02:47:19;;;;;;;4.80;4.30;;;20.80;99.90;;;;;;5113339;28;20479;-68
2022/06/26 02:49:45;;;;;;;5.50;4.50;;;20.80;99.90;;;;;;5112989;28;20512;-68
2022/06/26 02:52:42;;;;;;;7.20;4.90;;;20.80;99.90;;;;;;5112308;28;20479;-68
2022/06/26 02:55:13;;;;;;;5.60;5.07;;;20.70;99.90;;;;;;5113382;28;20931;-68
2022/06/26 02:57:39;;;;;;;5.03;4.57;;;20.70;99.90;;;;;;5114548;28;20449;-68
2022/06/26 03:00:07;;;;;;;4.53;4.13;;;20.70;99.90;;;;;;5112965;28;20814;-68
2022/06/26 03:02:33;;;;;;;6.40;4.83;;;20.70;99.90;;;;;;5112792;28;20461;-68
2022/06/26 03:05:03;;;;;;;6.10;4.27;;;20.70;99.90;;;;;;5112828;28;20475;-68
2022/06/26 03:07:29;;;;;;;4.37;3.97;;;20.70;99.90;;;;;;5112981;28;20463;-69
2022/06/26 03:09:59;;;;;;;4.90;4.40;;;20.70;99.90;;;;;;5112749;28;20463;-68
2022/06/26 03:12:32;;;;;;;5.30;4.53;;;20.70;99.90;;;;;;5114213;28;20534;-68
2022/06/26 03:15:02;;;;;;;5.63;4.60;;;20.60;99.90;;;;;;5112944;28;20421;-68
2022/06/26 03:17:34;;;;;;;5.53;4.83;;;20.60;99.90;;;;;;5112891;28;20470;-68
2022/06/26 03:20:12;;;;;;;6.60;4.63;;;20.60;99.90;;;;;;5112836;28;20418;-68
2022/06/26 03:22:39;;;;;;;4.90;4.50;;;20.60;99.90;;;;;;5113104;28;20479;-68
2022/06/26 03:25:09;;;;;;;4.93;4.50;;;20.60;99.90;;;;;;5112834;28;20794;-68
2022/06/26 03:27:38;;;;;;;5.97;4.80;;;20.60;99.90;;;;;;5112492;28;20469;-68
2022/06/26 03:30:12;;;;;;;4.37;3.93;;;20.60;99.90;;;;;;5112537;28;20983;-68
2022/06/26 03:32:48;;;;;;;4.20;3.80;;;20.60;99.90;;;;;;5114964;28;20531;-68
2022/06/26 03:35:19;;;;;;;6.90;4.87;;;20.60;99.90;;;;;;5116599;28;20406;-68
2022/06/26 03:37:48;;;;;;;5.80;4.60;;;20.60;99.90;;;;;;5116631;28;20452;-68
2022/06/26 03:40:16;;;;;;;6.10;4.47;;;20.60;99.90;;;;;;5116360;28;20920;-68
2022/06/26 03:42:43;;;;;;;8.50;5.00;;;20.60;99.90;;;;;;5116375;28;20458;-68
2022/06/26 03:45:14;;;;;;;5.77;5.20;;;20.50;99.90;;;;;;5116642;28;20418;-68
2022/06/26 03:47:40;;;;;;;5.20;4.70;;;20.60;99.90;;;;;;5116101;28;20458;-68
2022/06/26 03:50:07;;;;;;;4.73;4.13;;;20.60;99.90;;;;;;5116189;28;20463;-68
2022/06/26 03:52:34;;;;;;;5.10;4.33;;;20.60;99.90;;;;;;5115803;28;20471;-68
2022/06/26 03:55:00;;;;;;;4.97;4.47;;;20.60;99.90;;;;;;5116460;28;20756;-68
2022/06/26 03:57:26;;;;;;;4.83;4.27;;;20.60;99.90;;;;;;5116290;28;20563;-68
2022/06/26 03:59:58;;;;;;;4.97;4.47;;;20.50;99.90;;;;;;5116105;28;20415;-68
2022/06/26 04:02:29;;;;;;;4.97;4.03;;;20.50;99.90;;;;;;5116019;28;20792;-68
2022/06/26 04:04:55;;;;;;;5.43;4.93;;;20.60;99.90;;;;;;5116288;28;20477;-68
2022/06/26 04:07:21;;;;;;;5.63;5.13;;;20.60;99.90;;;;;;5116301;28;20957;-68
2022/06/26 04:09:47;;;;;;;7.13;4.80;;;20.60;99.90;;;;;;5115793;28;20477;-68
2022/06/26 04:12:19;;;;;;;8.70;4.70;;;20.60;99.90;;;;;;5115889;28;20453;-68
2022/06/26 04:14:46;;;;;;;8.10;4.30;;;20.60;99.90;;;;;;5115940;28;20417;-69
2022/06/26 04:17:17;;;;;;;7.20;4.27;;;20.60;99.90;;;;;;5115782;28;20549;-68
2022/06/26 04:19:45;;;;;;;4.33;3.93;;;20.60;99.90;;;;;;5115751;28;20430;-69
2022/06/26 04:22:13;;;;;;;6.27;4.80;;;20.60;99.90;;;;;;5115508;28;20466;-68
2022/06/26 04:24:39;;;;;;;3.97;3.67;;;20.60;99.90;;;;;;5115791;28;20419;-68
2022/06/26 04:27:14;;;;;;;5.33;3.90;;;20.60;99.90;;;;;;5115859;28;20458;-68
2022/06/26 04:29:42;;;;;;;4.00;3.57;;;20.70;99.90;;;;;;5115755;28;20811;-68
2022/06/26 04:32:08;;;;;;;4.47;4.03;;;20.70;99.90;;;;;;5115536;28;20438;-70
2022/06/26 04:34:35;;;;;;;4.40;3.93;;;20.70;99.90;;;;;;5115611;28;20999;-68
2022/06/26 04:37:04;;;;;;;5.30;4.57;;;20.70;99.90;;;;;;5115478;28;20492;-68
2022/06/26 04:39:31;;;;;;;5.17;3.67;;;20.70;99.90;;;;;;5115636;28;20488;-69
2022/06/26 04:41:59;;;;;;;5.23;4.17;;;20.80;99.90;;;;;;5114937;28;20504;-68
2022/06/26 04:44:25;;;;;;;5.87;4.47;;;20.80;99.90;;;;;;5114989;28;20428;-68
2022/06/26 04:46:52;;;;;;;4.60;4.20;;;20.80;99.90;;;;;;5115065;28;20451;-68
2022/06/26 04:49:18;;;;;;;5.27;4.47;;;20.90;99.90;;;;;;5115310;28;20500;-68
2022/06/26 04:51:49;;;;;;;4.73;3.73;;;20.90;99.90;;;;;;5115146;28;20446;-68
2022/06/26 04:54:17;;;;;;;4.13;3.63;;;20.90;99.90;;;;;;5074386;28;20787;-69
2022/06/26 04:56:54;;;;;;;9.20;4.70;;;20.90;99.90;;;;;;5075750;28;20515;-69
2022/06/26 04:59:21;;;;;;;5.67;3.97;;;21.00;99.90;;;;;;5074475;28;20466;-68
2022/06/26 05:01:48;;;;;;;4.17;3.67;;;21.00;99.90;;;;;;5074412;28;20785;-68
2022/06/26 05:04:15;;;;;;;5.43;4.87;;;21.10;99.90;;;;;;5074308;28;20413;-68
2022/06/26 05:06:41;;;;;;;6.20;4.10;;;21.10;99.90;;;;;;5074121;28;20469;-68
2022/06/26 05:09:08;;;;;;;4.60;4.20;;;21.10;99.90;;;;;;5074143;28;20458;-68
2022/06/26 05:11:40;;;;;;;4.63;3.83;;;21.20;99.90;;;;;;5074111;28;20508;-68
2022/06/26 05:14:16;;;;;;;3.90;3.60;;;21.20;99.90;;;;;;5074442;28;20402;-68
2022/06/26 05:16:42;;;;;;;9.93;3.90;;;21.30;99.90;;;;;;5074072;28;20445;-68
2022/06/26 05:19:10;;;;;;;4.20;3.80;;;21.30;99.90;;;;;;5074181;28;20409;-68
2022/06/26 05:21:36;;;;;;;5.17;4.63;;;21.40;99.90;;;;;;5074216;28;20444;-68
2022/06/26 05:24:06;;;;;;;4.07;3.33;;;21.40;99.90;;;;;;5073936;28;20938;-68
2022/06/26 05:26:39;;;;;;;3.67;3.23;;;21.40;99.90;;;;;;5073786;28;20446;-68
2022/06/26 05:29:05;;;;;;;3.50;3.13;;;21.50;99.90;;;;;;5073704;28;20414;-69
2022/06/26 05:31:31;;;;;;;4.57;3.60;;;21.60;99.90;;;;;;5073605;28;20814;-68
2022/06/26 05:33:58;;;;;;;3.90;3.60;;;21.60;99.90;;;;;;5074134;28;20454;-68
2022/06/26 05:36:24;;;;;;;4.20;3.60;;;21.70;99.90;;;;;;5073766;28;21033;-68
2022/06/26 05:38:57;;;;;;;9.30;3.10;;;21.80;99.90;;;;;;5073757;28;20847;-68
2022/06/26 05:41:27;;;;;;;3.53;3.23;;;21.80;99.90;;;;;;5073625;28;20430;-68
2022/06/26 05:43:59;;;;;;;3.83;3.50;;;21.90;99.90;;;;;;5073572;28;20430;-68
2022/06/26 05:46:26;;;;;;;3.97;3.57;;;21.90;99.90;;;;;;5073628;28;20443;-68
2022/06/26 05:48:53;;;;;;;3.27;2.97;;;22.00;99.90;;;;;;5073572;28;20487;-68
2022/06/26 05:51:29;;;;;;;5.03;3.70;;;22.00;99.90;;;;;;5073280;28;20818;-68
2022/06/26 05:53:55;;;;;;;4.10;3.10;;;22.10;99.90;;;;;;5107828;28;20467;-68
2022/06/26 05:56:21;;;;;;;3.43;3.10;;;22.10;99.90;;;;;;5114040;28;20496;-68
2022/06/26 05:58:47;;;;;;;3.97;3.60;;;22.20;99.90;;;;;;5114932;28;20438;-68
2022/06/26 06:01:22;;;;;;;4.20;3.20;;;22.30;99.90;;;;;;5113647;28;20468;-68
2022/06/26 06:03:50;;;;;;;3.50;3.20;;;22.30;99.90;;;;;;5113513;28;20437;-68
2022/06/26 06:06:18;;;;;;;4.37;3.63;;;22.40;99.90;;;;;;5113022;28;20527;-68
2022/06/26 06:08:48;;;;;;;4.00;3.60;;;22.40;99.90;;;;;;5113527;28;20408;-68
2022/06/26 06:11:15;;;;;;;3.77;3.40;;;22.50;99.90;;;;;;5113028;28;21035;-68
2022/06/26 06:13:42;;;;;;;2.97;2.73;;;22.60;99.90;;;;;;5113553;28;20404;-68
2022/06/26 06:16:08;;;;;;;5.07;3.50;;;22.60;99.90;;;;;;5113856;28;20408;-68
2022/06/26 06:18:38;;;;;;;3.83;3.50;;;22.70;99.90;;;;;;5113415;28;20775;-68
2022/06/26 06:21:04;;;;;;;3.50;3.20;;;22.80;99.90;;;;;;5113791;28;20432;-68
2022/06/26 06:23:30;;;;;;;6.30;3.40;;;22.80;99.90;;;;;;5113734;28;20418;-68
2022/06/26 06:25:56;;;;;;;3.83;2.90;;;22.90;99.90;;;;;;5113393;28;20469;-68
2022/06/26 06:28:22;;;;;;;8.00;3.30;;;23.00;99.90;;;;;;5113753;28;20428;-68
2022/06/26 06:30:49;;;;;;;3.50;3.20;;;23.00;99.90;;;;;;5114867;28;20200;-68
2022/06/26 06:33:21;;;;;;;3.90;2.80;;;23.10;99.90;;;;;;5113218;28;20444;-68
2022/06/26 06:35:48;;;;;;;3.23;2.67;;;23.10;99.90;;;;;;5113626;28;20397;-68
2022/06/26 06:38:23;;;;;;;2.90;2.60;;;23.20;99.90;;;;;;5113579;28;20463;-68
2022/06/26 06:40:50;;;;;;;2.67;2.47;;;23.20;99.90;;;;;;5113847;28;20506;-69
2022/06/26 06:43:16;;;;;;;5.40;2.80;;;23.30;99.90;;;;;;5113275;28;20983;-69
2022/06/26 06:45:59;;;;;;;2.63;2.40;;;23.40;99.90;;;;;;5113287;28;20412;-69
2022/06/26 06:48:29;;;;;;;3.23;2.90;;;23.50;99.90;;;;;;5112829;28;20440;-69
2022/06/26 06:50:55;;;;;;;4.00;2.93;;;23.50;99.90;;;;;;5113040;28;20459;-68
2022/06/26 06:53:28;;;;;;;4.20;3.30;;;23.60;99.90;;;;;;5114425;28;20960;-69
2022/06/26 06:55:54;;;;;;;2.60;2.40;;;23.60;99.90;;;;;;5112952;28;20413;-68
2022/06/26 06:58:23;;;;;;;3.10;2.80;;;23.70;99.90;;;;;;5113057;28;20439;-70
2022/06/26 07:00:50;;;;;;;3.43;2.83;;;23.70;99.90;;;;;;5113216;28;20414;-68
2022/06/26 07:03:16;;;;;;;3.03;2.70;;;23.80;99.90;;;;;;5112660;28;20464;-68
2022/06/26 07:05:42;;;;;;;2.47;2.27;;;23.90;99.90;;;;;;5113785;28;20804;-68
2022/06/26 07:08:10;;;;;;;3.03;2.77;;;24.00;99.90;;;;;;5116944;28;20468;-68
2022/06/26 07:10:36;;;;;;;4.80;2.97;;;24.00;99.90;;;;;;5117086;28;20461;-69
2022/06/26 07:13:12;;;;;;;2.80;2.60;;;24.10;99.90;;;;;;5117212;28;20483;-68
2022/06/26 07:15:39;;;;;;;5.23;2.40;;;24.20;99.90;;;;;;5117245;28;20441;-69
2022/06/26 07:18:13;;;;;;;2.70;2.33;;;24.20;99.90;;;;;;5116837;28;20456;-69
2022/06/26 07:20:41;;;;;;;2.30;2.10;;;24.30;99.90;;;;;;5117125;28;20475;-68
2022/06/26 07:23:09;;;;;;;3.50;3.20;;;24.30;99.90;;;;;;5117108;28;20958;-68
2022/06/26 07:25:35;;;;;;;3.17;2.37;;;24.40;99.90;;;;;;5118415;28;20416;-68
2022/06/26 07:28:04;;;;;;;2.93;2.73;;;24.50;99.90;;;;;;5116695;28;20529;-69
2022/06/26 07:30:31;;;;;;;3.30;3.00;;;24.50;99.90;;;;;;5114320;28;20464;-68
2022/06/26 07:32:58;;;;;;;2.83;2.33;;;24.60;99.90;;;;;;5115092;28;20453;-68
2022/06/26 07:38:26;;;;;;;2.70;2.50;;;24.70;99.90;;;;;;5083463;22;20507;-68
2022/06/26 07:40:52;;;;;;;3.10;2.60;;;24.80;99.90;;;;;;5057003;28;20497;-70
2022/06/26 07:43:18;;;;;;;5.00;2.57;;;24.80;99.90;;;;;;5095782;28;20419;-68
2022/06/26 07:45:45;;;;;;;2.50;2.30;;;24.90;99.90;;;;;;5078803;28;20444;-68
2022/06/26 07:48:11;;;;;;;3.13;2.83;;;24.90;99.90;;;;;;5097405;28;20427;-68
2022/06/26 07:50:37;;;;;;;2.50;2.30;;;25.00;99.90;;;;;;5078910;28;20999;-68
2022/06/26 07:53:03;;;;;;;2.57;2.37;;;25.00;99.90;;;;;;5078889;28;20440;-69
2022/06/26 07:55:30;;;;;;;2.90;2.70;;;25.10;99.90;;;;;;5079216;28;20642;-69
2022/06/26 07:57:57;;;;;;;2.60;2.40;;;25.10;99.90;;;;;;5078829;28;20573;-68
2022/06/26 08:00:32;;;;;;;3.60;2.57;;;25.20;99.90;;;;;;5078820;28;20416;-68
2022/06/26 08:03:06;;;;;;;2.83;2.50;;;25.20;99.90;;;;;;5078577;28;20437;-69
2022/06/26 08:06:09;;;;;;;3.37;2.83;;;25.30;99.90;;;;;;5097239;28;20774;-68
2022/06/26 08:08:37;;;;;;;3.07;2.33;;;25.30;99.90;;;;;;5046265;28;20445;-70
2022/06/26 08:11:04;;;;;;;5.90;2.83;;;25.40;99.90;;;;;;5078683;28;20516;-69
2022/06/26 08:13:30;;;;;;;3.10;2.37;;;25.40;99.90;;;;;;5078836;28;20506;-68
2022/06/26 08:16:02;;;;;;;2.37;2.17;;;25.40;99.90;;;;;;5078696;28;20432;-68
2022/06/26 08:18:29;;;;;;;3.97;2.40;;;25.50;99.90;;;;;;5096210;28;20435;-68
2022/06/26 08:22:00;;;;;;;2.80;2.37;;;25.50;99.90;;;;;;5078142;28;20431;-69
2022/06/26 08:23:43;;;;;;;2.30;1.80;;;25.60;99.90;;;;;;5096673;28;20199;-69
2022/06/26 08:26:09;;;;;;;2.33;2.13;;;25.60;99.90;;;;;;5078653;28;20476;-68
2022/06/26 08:28:37;;;;;;;3.30;2.37;;;25.70;99.90;;;;;;5078561;28;20181;-68
2022/06/26 08:31:29;;;;;;;2.30;2.10;;;25.80;99.90;;;;;;5078548;28;20996;-69
2022/06/26 08:34:03;;;;;;;2.30;2.20;;;25.80;99.90;;;;;;5077905;28;20428;-69
2022/06/26 08:36:31;;;;;;;2.60;2.07;;;25.90;99.90;;;;;;5078022;28;20475;-69
2022/06/26 08:39:00;;;;;;;2.07;1.87;;;25.90;99.90;;;;;;5078523;28;20454;-69
2022/06/26 08:41:28;;;;;;;2.17;1.87;;;26.00;99.90;;;;;;5078154;28;20480;-68
2022/06/26 08:44:01;;;;;;;1.47;1.37;;;26.00;99.90;;;;;;5077921;28;20854;-70
2022/06/26 08:46:27;;;;;;;2.30;2.00;;;26.00;99.90;;;;;;5077979;28;20566;-69
2022/06/26 08:48:58;;;;;;;2.00;1.90;;;26.10;99.90;;;;;;5078094;28;20779;-69
2022/06/26 08:51:28;;;;;;;1.80;1.70;;;26.10;99.90;;;;;;5077870;28;20575;-70
2022/06/26 08:53:57;;;;;;;1.70;1.60;;;26.10;99.90;;;;;;5077985;28;20444;-69
2022/06/26 08:56:23;;;;;;;2.30;2.10;;;26.20;99.90;;;;;;5077894;28;20500;-69
2022/06/26 08:58:51;;;;;;;2.00;1.90;;;26.20;99.90;;;;;;5077818;28;20420;-68
2022/06/26 09:01:23;;;;;;;2.53;2.33;;;26.30;99.90;;;;;;5077956;28;20460;-69
2022/06/26 09:03:49;;;;;;;2.50;2.30;;;26.30;99.90;;;;;;5077953;28;20459;-69
2022/06/26 09:06:16;;;;;;;2.23;1.77;;;26.40;99.90;;;;;;5077583;28;20554;-68
2022/06/26 09:08:48;;;;;;;2.57;2.37;;;26.40;99.90;;;;;;5077573;28;20424;-69
2022/06/26 09:11:15;;;;;;;1.73;1.63;;;26.50;99.90;;;;;;5077621;28;20728;-69
2022/06/26 09:13:44;;;;;;;2.80;1.67;;;26.50;99.90;;;;;;5077750;28;20542;-69
2022/06/26 09:16:15;;;;;;;2.03;1.90;;;26.60;99.90;;;;;;5077665;28;20820;-69
2022/06/26 09:18:43;;;;;;;5.57;2.47;;;26.70;99.90;;;;;;5095633;28;20423;-69
2022/06/26 09:21:11;;;;;;;2.00;1.63;;;26.80;99.90;;;;;;5077637;28;20448;-69
2022/06/26 09:23:38;;;;;;;1.60;1.50;;;26.90;99.90;;;;;;5077333;28;20840;-69
2022/06/26 09:26:05;;;;;;;2.33;2.13;;;26.90;99.90;;;;;;5077190;28;20429;-69
2022/06/26 09:28:35;;;;;;;3.03;1.83;;;27.00;99.90;;;;;;5076750;28;20914;-69
2022/06/26 09:31:04;;;;;;;2.03;1.87;;;27.10;99.90;;;;;;5076575;28;20508;-69
2022/06/26 09:33:36;;;;;;;2.00;1.90;;;27.20;99.90;;;;;;5077182;28;20752;-69
2022/06/26 09:36:04;;;;;;;2.27;2.07;;;27.20;99.90;;;;;;5077299;28;20941;-70
2022/06/26 09:38:33;;;;;;;2.50;2.30;;;27.30;99.90;;;;;;5077731;28;20474;-69
2022/06/26 09:41:01;;;;;;;3.43;2.00;;;27.30;99.90;;;;;;5077153;28;20425;-69
2022/06/26 09:43:37;;;;;;;2.43;2.23;;;27.40;99.90;;;;;;5076903;28;20429;-69
2022/06/26 09:46:07;;;;;;;2.90;2.30;;;27.50;99.90;;;;;;5076956;28;20427;-69
2022/06/26 09:48:35;;;;;;;1.90;1.80;;;27.50;99.90;;;;;;5077267;28;20483;-69
2022/06/26 09:51:02;;;;;;;3.00;2.43;;;27.50;99.90;;;;;;5094973;28;20825;-69
2022/06/26 09:53:32;;;;;;;2.17;2.07;;;27.60;99.90;;;;;;5076465;28;20412;-70
2022/06/26 09:55:59;;;;;;;2.30;2.10;;;27.60;99.90;;;;;;5076454;28;20431;-69
2022/06/26 09:58:27;;;;;;;2.67;1.93;;;27.60;99.90;;;;;;5076602;28;20438;-69
2022/06/26 10:06:31;;;;;;;2.23;2.10;;;27.70;99.90;;;;;;5095081;28;20806;-69
2022/06/26 10:09:02;;;;;;;2.30;2.20;;;27.80;99.90;;;;;;5076668;28;20405;-69
2022/06/26 10:11:30;;;;;;;3.30;2.20;;;27.80;99.90;;;;;;5094471;28;20562;-69
2022/06/26 10:14:11;;;;;;;1.97;1.87;;;27.80;99.90;;;;;;5076534;28;20507;-69
2022/06/26 10:16:50;;;;;;;2.77;2.53;;;27.90;99.90;;;;;;5076347;28;20799;-69
2022/06/26 10:19:55;;;;;;;2.57;1.93;;;27.90;99.90;;;;;;5075280;28;20421;-69
2022/06/26 10:22:25;;;;;;;1.87;1.77;;;27.90;99.90;;;;;;5076270;28;20456;-69
2022/06/26 10:24:57;;;;;;;1.73;1.63;;;27.90;99.90;;;;;;5076099;28;20428;-69
2022/06/26 10:27:29;;;;;;;2.00;1.90;;;27.90;99.90;;;;;;5076211;28;20451;-69
2022/06/26 10:30:16;;;;;;;3.00;2.20;;;28.00;99.90;;;;;;5076213;28;20486;-69
2022/06/26 10:32:47;;;;;;;2.13;1.93;;;28.00;99.90;;;;;;5075833;28;20448;-69
2022/06/26 10:35:13;;;;;;;1.70;1.60;;;28.10;99.90;;;;;;5094087;28;20393;-69
2022/06/26 10:37:50;;;;;;;1.90;1.80;;;28.10;99.90;;;;;;5075963;28;20464;-69
2022/06/26 10:43:02;;;;;;;2.07;1.63;;;28.10;99.90;;;;;;5062633;28;20444;-69
2022/06/26 10:45:35;;;;;;;2.13;2.03;;;28.10;99.90;;;;;;5076210;28;20921;-69
2022/06/26 10:48:05;;;;;;;2.30;2.03;;;28.10;99.90;;;;;;5075900;28;20853;-69
2022/06/26 10:50:35;;;;;;;3.13;2.40;;;28.20;99.90;;;;;;5076008;28;20818;-69
2022/06/26 10:53:25;;;;;;;1.93;1.83;;;28.20;99.90;;;;;;5075906;28;20493;-69
2022/06/26 10:56:03;;;;;;;3.53;1.90;;;28.20;99.90;;;;;;5093966;28;20769;-69
2022/06/26 10:59:02;;;;;;;1.87;1.77;;;28.20;99.90;;;;;;5075789;28;20425;-69
2022/06/26 11:01:28;;;;;;;2.27;2.00;;;28.30;99.90;;;;;;5056098;28;21030;-69
2022/06/26 11:03:56;;;;;;;1.97;1.77;;;28.20;99.90;;;;;;5076121;28;20446;-69
2022/06/26 11:06:27;;;;;;;1.60;1.50;;;28.30;99.90;;;;;;5075755;28;20533;-69
2022/06/26 11:08:54;;;;;;;3.07;2.07;;;28.30;99.90;;;;;;5075695;28;20918;-69
2022/06/26 11:11:31;;;;;;;2.20;1.93;;;28.30;99.90;;;;;;5075753;28;20476;-69
2022/06/26 11:14:06;;;;;;;1.93;1.83;;;28.30;99.90;;;;;;5075607;28;20433;-69
2022/06/26 11:16:43;;;;;;;3.70;2.10;;;28.30;99.90;;;;;;5075547;28;20460;-69
2022/06/26 11:19:21;;;;;;;3.03;2.17;;;28.30;99.90;;;;;;5076019;28;20428;-69
2022/06/26 11:21:48;;;;;;;2.27;1.87;;;28.30;99.90;;;;;;5093829;28;20797;-69
2022/06/26 11:24:29;;;;;;;2.27;2.17;;;28.30;99.90;;;;;;5075919;28;20771;-69
2022/06/26 11:26:55;;;;;;;5.90;2.53;;;28.30;99.90;;;;;;5076047;28;20974;-69
2022/06/26 11:29:21;;;;;;;3.70;2.13;;;28.30;99.90;;;;;;5075601;28;20426;-69
2022/06/26 11:31:49;;;;;;;2.33;1.90;;;28.40;99.90;;;;;;5094043;28;20429;-69
2022/06/26 11:34:16;;;;;;;2.83;2.17;;;28.40;99.90;;;;;;5075641;28;20418;-69
2022/06/26 11:36:56;;;;;;;2.07;1.60;;;28.40;99.90;;;;;;5075530;28;20467;-69
2022/06/26 11:39:24;;;;;;;2.20;2.00;;;28.40;99.90;;;;;;5075769;28;20441;-69
2022/06/26 11:41:52;;;;;;;1.93;1.70;;;28.40;99.90;;;;;;5075146;28;20449;-69
2022/06/26 11:44:19;;;;;;;2.00;1.80;;;28.40;99.90;;;;;;5075333;28;20979;-69
2022/06/26 11:46:46;;;;;;;6.13;2.10;;;28.40;99.90;;;;;;5093254;28;20429;-69
2022/06/26 11:49:16;;;;;;;1.90;1.77;;;28.40;99.90;;;;;;5075225;28;20991;-69
2022/06/26 11:51:43;;;;;;;2.10;1.67;;;28.50;99.90;;;;;;5075301;28;20441;-69
2022/06/26 11:54:26;;;;;;;1.70;1.60;;;28.50;99.90;;;;;;5078311;28;20752;-69
2022/06/26 11:56:55;;;;;;;1.90;1.80;;;28.50;99.90;;;;;;5078810;28;20491;-69
2022/06/26 11:59:23;;;;;;;1.63;1.53;;;28.60;99.90;;;;;;5079035;28;20428;-69
2022/06/26 12:01:54;;;;;;;2.03;1.90;;;28.60;99.90;;;;;;5078594;28;20499;-69
2022/06/26 12:04:24;;;;;;;2.00;1.90;;;28.70;99.90;;;;;;5078859;28;20433;-69
2022/06/26 12:06:52;;;;;;;3.60;2.00;;;28.70;99.90;;;;;;5078912;28;20555;-69
2022/06/26 12:09:30;;;;;;;2.73;2.40;;;28.70;99.90;;;;;;5078662;28;20419;-69
2022/06/26 12:11:56;;;;;;;2.27;2.07;;;28.80;99.90;;;;;;5062421;28;20813;-69
2022/06/26 12:14:25;;;;;;;2.40;1.90;;;28.80;99.90;;;;;;5078784;28;20429;-69
2022/06/26 12:17:07;;;;;;;1.83;1.63;;;28.90;99.90;;;;;;5078505;28;20445;-69
2022/06/26 12:19:42;;;;;;;1.90;1.80;;;28.90;99.90;;;;;;5079130;28;20441;-69
2022/06/26 12:22:14;;;;;;;1.90;1.70;;;28.90;99.90;;;;;;5078508;28;20483;-69
2022/06/26 12:24:59;;;;;;;2.07;1.97;;;28.90;99.90;;;;;;5078873;28;20520;-69
2022/06/26 12:27:43;;;;;;;2.60;1.90;;;29.00;99.90;;;;;;5078356;28;20827;-69
2022/06/26 12:30:16;;;;;;;4.00;1.40;;;29.00;99.90;;;;;;5078081;28;20833;-69
2022/06/26 12:32:47;;;;;;;1.93;1.60;;;29.10;99.90;;;;;;5078578;28;20437;-69
2022/06/26 12:35:17;;;;;;;1.60;1.50;;;29.10;99.90;;;;;;5078299;28;20768;-69
2022/06/26 12:37:43;;;;;;;1.80;1.50;;;29.10;99.90;;;;;;5074622;28;20464;-69
2022/06/26 12:40:34;;;;;;;1.53;1.43;;;29.10;99.90;;;;;;5074664;28;20419;-69
2022/06/26 12:43:01;;;;;;;2.63;1.90;;;29.10;99.90;;;;;;5074783;28;20448;-69
2022/06/26 12:45:28;;;;;;;2.10;1.90;;;29.10;99.90;;;;;;5074806;28;21089;-69
2022/06/26 12:48:01;;;;;;;2.73;1.80;;;29.20;99.90;;;;;;5074366;28;20982;-69
2022/06/26 12:50:28;;;;;;;1.83;1.73;;;29.20;99.90;;;;;;5074738;28;20479;-69
2022/06/26 12:52:55;;;;;;;2.30;1.67;;;29.20;99.90;;;;;;5074556;28;20453;-69
2022/06/26 12:55:28;;;;;;;2.00;1.90;;;29.20;99.90;;;;;;5074497;28;20427;-69
2022/06/26 12:57:56;;;;;;;2.70;1.57;;;29.20;99.90;;;;;;5074410;28;21059;-69
2022/06/26 13:00:24;;;;;;;2.67;1.90;;;29.20;99.90;;;;;;5074571;28;20496;-69
2022/06/26 13:02:50;;;;;;;1.80;1.70;;;29.30;99.90;;;;;;5074270;28;20432;-69
2022/06/26 13:05:17;;;;;;;1.67;1.57;;;29.30;99.90;;;;;;5074024;28;20416;-69
2022/06/26 13:07:47;;;;;;;3.40;1.80;;;29.30;99.90;;;;;;5074398;28;20469;-69
2022/06/26 13:10:14;;;;;;;3.10;2.13;;;29.40;99.90;;;;;;5074215;28;20484;-69
2022/06/26 13:12:41;;;;;;;2.50;1.87;;;29.30;99.90;;;;;;5075410;28;20486;-69
2022/06/26 13:15:14;;;;;;;1.80;1.70;;;29.40;99.90;;;;;;5075499;28;20404;-69
2022/06/26 13:17:43;;;;;;;2.30;2.10;;;29.30;99.90;;;;;;5073985;28;20447;-69